createdAt,value
2018-09-21T00:00:00.951Z,4.00
2018-09-21T00:01:00.965Z,4.00
2018-09-21T00:02:00.982Z,4.00
2018-09-21T00:03:00.996Z,4.00
2018-09-21T00:04:01.014Z,4.00
2018-09-21T00:05:01.025Z,4.00
2018-09-21T00:06:01.042Z,4.00
2018-09-21T00:07:01.058Z,4.00
2018-09-21T00:08:01.073Z,4.00
2018-09-21T00:09:01.088Z,4.00
2018-09-21T00:10:01.102Z,4.00
2018-09-21T00:11:01.124Z,4.00
2018-09-21T00:12:01.233Z,4.00
2018-09-21T00:13:01.527Z,4.00
2018-09-21T00:14:01.214Z,4.00
2018-09-21T00:15:01.203Z,4.00
2018-09-21T00:16:01.196Z,4.00
2018-09-21T00:17:01.261Z,4.00
2018-09-21T00:18:01.226Z,4.00
2018-09-21T00:19:01.240Z,4.00
2018-09-21T00:20:01.256Z,4.00
2018-09-21T00:21:01.497Z,4.00
2018-09-21T00:22:01.285Z,4.00
2018-09-21T00:23:01.301Z,4.00
2018-09-21T00:24:01.316Z,4.00
2018-09-21T00:25:01.331Z,4.00
2018-09-21T00:26:01.350Z,4.00
2018-09-21T00:27:01.363Z,4.00
2018-09-21T00:28:01.377Z,4.00
2018-09-21T00:29:01.391Z,4.00
2018-09-21T00:30:01.407Z,4.00
2018-09-21T00:31:01.425Z,4.00
2018-09-21T00:32:01.437Z,4.00
2018-09-21T00:33:01.456Z,4.00
2018-09-21T00:34:01.468Z,4.00
2018-09-21T00:35:01.483Z,4.00
2018-09-21T00:36:01.536Z,4.00
2018-09-21T00:37:01.516Z,4.00
2018-09-21T00:38:01.559Z,4.00
2018-09-21T00:39:01.546Z,4.00
2018-09-21T00:40:01.565Z,4.00
2018-09-21T00:41:01.574Z,4.00
2018-09-21T00:42:01.590Z,4.00
2018-09-21T00:43:01.654Z,4.00
2018-09-21T00:46:01.695Z,4.00
2018-09-21T00:47:01.669Z,4.00
2018-09-21T00:48:01.679Z,4.00
2018-09-21T00:49:01.693Z,4.00
2018-09-21T00:50:01.715Z,4.00
2018-09-21T00:51:01.725Z,4.00
2018-09-21T00:52:01.743Z,4.00
2018-09-21T00:53:01.756Z,4.00
2018-09-21T00:54:01.773Z,4.00
2018-09-21T00:55:01.788Z,4.00
2018-09-21T00:56:01.804Z,4.00
2018-09-21T00:57:01.819Z,4.00
2018-09-21T00:58:01.830Z,4.00
2018-09-21T00:59:01.851Z,4.00
2018-09-21T01:00:01.861Z,4.00
2018-09-21T01:01:01.875Z,4.00
2018-09-21T01:02:01.890Z,4.00
2018-09-21T01:03:02.259Z,4.00
2018-09-21T01:04:01.925Z,4.00
2018-09-21T01:05:01.943Z,4.00
2018-09-21T01:06:01.952Z,4.00
2018-09-21T01:07:01.969Z,4.00
2018-09-21T01:08:01.984Z,4.00
2018-09-21T01:09:01.997Z,4.00
2018-09-21T01:10:02.013Z,4.00
2018-09-21T01:11:02.028Z,4.00
2018-09-21T01:12:02.045Z,4.00
2018-09-21T01:13:02.062Z,4.00
2018-09-21T01:14:02.073Z,4.00
2018-09-21T01:15:02.089Z,4.00
2018-09-21T01:16:02.119Z,4.00
2018-09-21T01:17:02.119Z,4.00
2018-09-21T01:18:02.135Z,4.00
2018-09-21T01:20:02.164Z,4.00
2018-09-21T01:21:02.480Z,4.00
2018-09-21T01:22:02.195Z,4.00
2018-09-21T01:23:02.209Z,4.00
2018-09-21T01:24:02.225Z,4.00
2018-09-21T01:25:02.239Z,4.00
2018-09-21T01:26:02.258Z,4.00
2018-09-21T01:27:02.269Z,4.00
2018-09-21T01:28:02.283Z,4.00
2018-09-21T01:29:02.327Z,4.00
2018-09-21T01:30:02.321Z,4.00
2018-09-21T01:31:02.335Z,4.00
2018-09-21T01:32:02.345Z,4.00
2018-09-21T01:33:02.359Z,4.00
2018-09-21T01:34:02.378Z,4.00
2018-09-21T01:35:02.405Z,4.00
2018-09-21T01:36:02.719Z,4.00
2018-09-21T01:37:02.420Z,4.00
2018-09-21T01:38:02.437Z,4.00
2018-09-21T01:39:02.454Z,4.00
2018-09-21T01:40:02.466Z,4.00
2018-09-21T01:41:02.499Z,4.00
2018-09-21T01:42:02.496Z,4.00
2018-09-21T01:43:02.512Z,4.00
2018-09-21T01:44:02.527Z,4.00
2018-09-21T01:45:02.540Z,4.00
2018-09-21T01:46:02.555Z,4.00
2018-09-21T01:47:02.571Z,4.00
2018-09-21T01:48:02.589Z,4.00
2018-09-21T01:49:02.602Z,4.00
2018-09-21T01:50:02.669Z,4.00
2018-09-21T01:53:02.675Z,4.00
2018-09-21T01:54:02.675Z,4.00
2018-09-21T01:55:02.692Z,4.00
2018-09-21T01:56:02.711Z,4.00
2018-09-21T01:57:02.727Z,4.00
2018-09-21T01:58:02.737Z,4.00
2018-09-21T01:59:02.754Z,4.00
2018-09-21T02:00:02.768Z,4.00
2018-09-21T02:01:02.813Z,4.00
2018-09-21T02:02:02.797Z,4.00
2018-09-21T02:03:02.814Z,4.00
2018-09-21T02:04:02.834Z,4.00
2018-09-21T02:05:02.848Z,4.00
2018-09-21T02:06:02.862Z,4.00
2018-09-21T02:07:02.874Z,4.00
2018-09-21T02:08:02.889Z,4.00
2018-09-21T02:09:02.904Z,4.00
2018-09-21T02:10:02.925Z,4.00
2018-09-21T02:11:02.937Z,4.00
2018-09-21T02:12:02.962Z,4.00
2018-09-21T02:13:02.965Z,4.00
2018-09-21T02:14:02.979Z,4.00
2018-09-21T02:15:03.004Z,4.00
2018-09-21T02:16:03.015Z,4.00
2018-09-21T02:17:03.031Z,4.00
2018-09-21T02:18:03.041Z,4.00
2018-09-21T02:19:03.055Z,4.00
2018-09-21T02:20:03.070Z,4.00
2018-09-21T02:21:03.086Z,4.00
2018-09-21T02:22:03.120Z,4.00
2018-09-21T02:23:03.122Z,4.00
2018-09-21T02:24:03.130Z,4.00
2018-09-21T02:25:03.163Z,4.00
2018-09-21T02:26:03.581Z,4.00
2018-09-21T02:27:03.176Z,4.00
2018-09-21T02:28:03.192Z,4.00
2018-09-21T02:29:03.204Z,4.00
2018-09-21T02:30:03.772Z,4.00
2018-09-21T02:31:03.237Z,4.00
2018-09-21T02:32:03.453Z,4.00
2018-09-21T02:33:03.301Z,4.00
2018-09-21T02:34:03.282Z,4.00
2018-09-21T02:35:03.298Z,4.00
2018-09-21T02:36:03.313Z,4.00
2018-09-21T02:37:03.329Z,4.00
2018-09-21T02:38:03.339Z,4.00
2018-09-21T02:39:03.357Z,4.00
2018-09-21T02:40:03.374Z,4.00
2018-09-21T02:41:03.385Z,4.00
2018-09-21T02:42:03.415Z,4.00
2018-09-21T02:43:03.444Z,4.00
2018-09-21T02:44:03.431Z,4.00
2018-09-21T02:45:03.447Z,4.00
2018-09-21T02:46:03.474Z,4.00
2018-09-21T02:47:03.481Z,4.00
2018-09-21T02:48:03.496Z,4.00
2018-09-21T02:49:03.509Z,4.00
2018-09-21T02:50:03.523Z,4.00
2018-09-21T02:51:03.536Z,4.00
2018-09-21T02:52:03.552Z,4.00
2018-09-21T02:53:03.565Z,4.00
2018-09-21T02:54:03.586Z,4.00
2018-09-21T02:55:03.603Z,4.00
2018-09-21T02:58:04.045Z,4.00
2018-09-21T02:59:03.658Z,4.00
2018-09-21T03:00:03.672Z,4.00
2018-09-21T03:01:03.686Z,4.00
2018-09-21T03:02:03.703Z,4.00
2018-09-21T03:03:03.716Z,4.00
2018-09-21T03:04:03.753Z,4.00
2018-09-21T03:05:03.749Z,4.00
2018-09-21T03:06:03.765Z,4.00
2018-09-21T03:07:03.781Z,4.00
2018-09-21T03:08:03.794Z,4.00
2018-09-21T03:09:03.821Z,4.00
2018-09-21T03:10:03.823Z,4.00
2018-09-21T03:11:03.839Z,4.00
2018-09-21T03:12:03.853Z,4.00
2018-09-21T03:13:03.953Z,4.00
2018-09-21T03:14:03.883Z,4.00
2018-09-21T03:15:03.919Z,4.00
2018-09-21T03:16:03.918Z,4.00
2018-09-21T03:17:03.928Z,4.00
2018-09-21T03:18:03.942Z,4.00
2018-09-21T03:19:03.961Z,4.00
2018-09-21T03:20:03.974Z,4.00
2018-09-21T03:21:03.991Z,4.00
2018-09-21T03:22:04.005Z,4.00
2018-09-21T03:23:04.027Z,4.00
2018-09-21T03:24:04.037Z,4.00
2018-09-21T03:25:04.055Z,4.00
2018-09-21T03:26:04.095Z,4.00
2018-09-21T03:27:04.087Z,4.00
2018-09-21T03:28:04.100Z,4.00
2018-09-21T03:29:04.119Z,4.00
2018-09-21T03:30:04.128Z,4.00
2018-09-21T03:31:04.355Z,4.00
2018-09-21T03:33:04.202Z,4.00
2018-09-21T03:34:04.188Z,4.00
2018-09-21T03:35:04.275Z,4.00
2018-09-21T03:36:04.217Z,4.00
2018-09-21T03:37:04.236Z,4.00
2018-09-21T03:38:04.272Z,4.00
2018-09-21T03:39:04.263Z,4.00
2018-09-21T03:40:04.277Z,4.00
2018-09-21T03:41:04.293Z,4.00
2018-09-21T03:42:04.305Z,4.00
2018-09-21T03:43:04.320Z,4.00
2018-09-21T03:44:04.336Z,4.00
2018-09-21T03:45:04.349Z,4.00
2018-09-21T03:46:04.376Z,4.00
2018-09-21T03:47:04.383Z,4.00
2018-09-21T03:48:04.432Z,4.00
2018-09-21T03:49:04.409Z,4.00
2018-09-21T03:50:04.426Z,4.00
2018-09-21T03:51:04.443Z,4.00
2018-09-21T03:52:04.458Z,4.00
2018-09-21T03:53:04.475Z,4.00
2018-09-21T03:54:04.492Z,4.00
2018-09-21T03:55:04.511Z,4.00
2018-09-21T03:56:04.518Z,4.00
2018-09-21T03:57:04.535Z,4.00
2018-09-21T03:58:04.552Z,4.00
2018-09-21T03:59:04.565Z,4.00
2018-09-21T04:00:04.577Z,4.00
2018-09-21T04:01:04.739Z,4.00
2018-09-21T04:03:04.631Z,4.00
2018-09-21T04:04:04.669Z,4.00
2018-09-21T04:05:04.652Z,4.00
2018-09-21T04:06:04.672Z,4.00
2018-09-21T04:07:04.685Z,4.00
2018-09-21T04:08:04.701Z,4.00
2018-09-21T04:09:04.713Z,4.00
2018-09-21T04:10:04.727Z,4.00
2018-09-21T04:11:04.745Z,4.00
2018-09-21T04:12:04.757Z,4.00
2018-09-21T04:13:04.771Z,4.00
2018-09-21T04:14:04.788Z,4.00
2018-09-21T04:15:04.803Z,4.00
2018-09-21T04:16:04.821Z,4.00
2018-09-21T04:17:04.852Z,4.00
2018-09-21T04:18:04.847Z,4.00
2018-09-21T04:19:04.866Z,4.00
2018-09-21T04:20:04.879Z,4.00
2018-09-21T04:21:04.892Z,4.00
2018-09-21T04:22:04.906Z,4.00
2018-09-21T04:23:04.993Z,4.00
2018-09-21T04:24:04.939Z,4.00
2018-09-21T04:25:04.956Z,4.00
2018-09-21T04:26:04.968Z,4.00
2018-09-21T04:27:04.984Z,4.00
2018-09-21T04:28:04.997Z,4.00
2018-09-21T04:29:05.012Z,4.00
2018-09-21T04:30:05.033Z,4.00
2018-09-21T04:31:05.043Z,4.00
2018-09-21T04:32:05.062Z,4.00
2018-09-21T04:33:05.073Z,4.00
2018-09-21T04:34:05.103Z,4.00
2018-09-21T04:35:05.138Z,4.00
2018-09-21T04:36:05.136Z,4.00
2018-09-21T04:37:05.195Z,4.00
2018-09-21T04:38:05.153Z,4.00
2018-09-21T04:39:05.165Z,4.00
2018-09-21T04:40:05.183Z,4.00
2018-09-21T04:41:05.192Z,4.00
2018-09-21T04:42:05.211Z,4.00
2018-09-21T04:43:05.232Z,4.00
2018-09-21T04:44:05.243Z,4.00
2018-09-21T04:45:05.255Z,4.00
2018-09-21T04:46:05.412Z,4.00
2018-09-21T04:47:05.286Z,4.00
2018-09-21T04:48:05.312Z,0.00
2018-09-21T04:49:05.315Z,4.00
2018-09-21T04:50:05.338Z,4.00
2018-09-21T04:51:05.348Z,4.00
2018-09-21T04:52:05.375Z,4.00
2018-09-21T04:53:05.380Z,4.00
2018-09-21T04:54:05.392Z,4.00
2018-09-21T04:55:05.406Z,8.00
2018-09-21T04:56:05.420Z,4.00
2018-09-21T04:57:05.436Z,4.00
2018-09-21T04:58:05.454Z,8.00
2018-09-21T04:59:05.507Z,8.00
2018-09-21T05:00:05.483Z,8.00
2018-09-21T05:01:05.498Z,8.00
2018-09-21T05:02:05.985Z,4.00
2018-09-21T05:03:05.931Z,8.00
2018-09-21T05:04:05.553Z,8.00
2018-09-21T05:05:05.694Z,12.00
2018-09-21T05:06:05.594Z,12.00
2018-09-21T05:07:06.269Z,12.00
2018-09-21T05:08:06.135Z,12.00
2018-09-21T05:09:05.621Z,16.00
2018-09-21T05:10:05.636Z,20.00
2018-09-21T05:11:05.682Z,16.00
2018-09-21T05:12:05.729Z,24.00
2018-09-21T05:13:05.691Z,20.00
2018-09-21T05:14:05.697Z,24.00
2018-09-21T05:15:05.715Z,24.00
2018-09-21T05:16:05.726Z,28.00
2018-09-21T05:17:05.734Z,32.00
2018-09-21T05:18:05.768Z,36.00
2018-09-21T05:19:05.763Z,40.00
2018-09-21T05:20:05.776Z,48.00
2018-09-21T05:21:05.794Z,52.00
2018-09-21T05:22:05.810Z,56.00
2018-09-21T05:23:05.822Z,60.00
2018-09-21T05:24:05.837Z,64.00
2018-09-21T05:25:05.850Z,64.00
2018-09-21T05:26:05.867Z,72.00
2018-09-21T05:27:05.886Z,80.00
2018-09-21T05:28:05.899Z,84.00
2018-09-21T05:29:05.936Z,96.00
2018-09-21T05:30:05.939Z,104.00
2018-09-21T05:31:05.965Z,116.00
2018-09-21T05:32:05.959Z,128.00
2018-09-21T05:33:05.978Z,140.00
2018-09-21T05:34:06.049Z,144.00
2018-09-21T05:35:06.091Z,144.00
2018-09-21T05:36:06.019Z,140.00
2018-09-21T05:37:06.212Z,132.00
2018-09-21T05:38:06.073Z,136.00
2018-09-21T05:39:06.073Z,136.00
2018-09-21T05:40:06.079Z,144.00
2018-09-21T05:41:06.095Z,156.00
2018-09-21T05:42:06.108Z,160.00
2018-09-21T05:43:06.123Z,172.00
2018-09-21T05:44:06.139Z,188.00
2018-09-21T05:45:06.160Z,196.00
2018-09-21T05:46:06.245Z,204.00
2018-09-21T05:47:06.233Z,232.00
2018-09-21T05:48:06.203Z,252.00
2018-09-21T05:49:06.216Z,280.00
2018-09-21T05:50:06.235Z,304.00
2018-09-21T05:51:06.246Z,292.00
2018-09-21T05:52:06.284Z,280.00
2018-09-21T05:53:06.281Z,276.00
2018-09-21T05:54:06.297Z,272.00
2018-09-21T05:55:06.307Z,268.00
2018-09-21T05:56:06.392Z,260.00
2018-09-21T05:57:06.384Z,260.00
2018-09-21T05:58:06.378Z,260.00
2018-09-21T05:59:06.396Z,264.00
2018-09-21T06:00:06.429Z,276.00
2018-09-21T06:01:06.404Z,288.00
2018-09-21T06:02:06.649Z,296.00
2018-09-21T06:03:06.442Z,300.00
2018-09-21T06:04:06.446Z,312.00
2018-09-21T06:05:06.458Z,320.00
2018-09-21T06:06:06.485Z,328.00
2018-09-21T06:07:06.496Z,340.00
2018-09-21T06:08:06.548Z,356.00
2018-09-21T06:09:06.520Z,372.00
2018-09-21T06:10:06.541Z,392.00
2018-09-21T06:11:06.585Z,412.00
2018-09-21T06:12:06.569Z,440.00
2018-09-21T06:13:06.580Z,476.00
2018-09-21T06:14:06.674Z,508.00
2018-09-21T06:15:06.629Z,544.00
2018-09-21T06:16:06.631Z,580.00
2018-09-21T06:17:06.789Z,612.00
2018-09-21T06:18:06.689Z,636.00
2018-09-21T06:19:06.733Z,656.00
2018-09-21T06:20:12.107Z,664.00
2018-09-21T06:21:06.750Z,668.00
2018-09-21T06:22:06.737Z,660.00
2018-09-21T06:23:06.927Z,664.00
2018-09-21T06:24:06.750Z,676.00
2018-09-21T06:25:06.776Z,700.00
2018-09-21T06:26:06.780Z,732.00
2018-09-21T06:27:06.797Z,764.00
2018-09-21T06:28:06.810Z,788.00
2018-09-21T06:29:06.826Z,808.00
2018-09-21T06:30:07.139Z,812.00
2018-09-21T06:31:06.963Z,800.00
2018-09-21T06:32:06.873Z,776.00
2018-09-21T06:33:06.892Z,748.00
2018-09-21T06:34:07.371Z,728.00
2018-09-21T06:35:06.918Z,720.00
2018-09-21T06:36:07.149Z,720.00
2018-09-21T06:37:07.293Z,720.00
2018-09-21T06:38:06.965Z,716.00
2018-09-21T06:39:06.979Z,720.00
2018-09-21T06:40:06.995Z,732.00
2018-09-21T06:41:07.052Z,736.00
2018-09-21T06:42:07.023Z,760.00
2018-09-21T06:43:07.039Z,816.00
2018-09-21T06:44:07.057Z,900.00
2018-09-21T06:45:07.090Z,1000.00
2018-09-21T06:46:07.175Z,1072.00
2018-09-21T06:47:07.100Z,1148.00
2018-09-21T06:48:07.115Z,1220.00
2018-09-21T06:49:07.131Z,1284.00
2018-09-21T06:50:07.148Z,1332.00
2018-09-21T06:51:07.168Z,1360.00
2018-09-21T06:52:07.183Z,1372.00
2018-09-21T06:53:07.366Z,1344.00
2018-09-21T06:54:07.208Z,1256.00
2018-09-21T06:55:07.428Z,1168.00
2018-09-21T06:56:07.238Z,1128.00
2018-09-21T06:57:07.255Z,1096.00
2018-09-21T06:58:07.268Z,1080.00
2018-09-21T06:59:07.712Z,1080.00
2018-09-21T07:00:07.306Z,1060.00
2018-09-21T07:01:07.316Z,1048.00
2018-09-21T07:02:07.391Z,1000.00
2018-09-21T07:03:07.350Z,980.00
2018-09-21T07:04:07.363Z,996.00
2018-09-21T07:05:07.379Z,1020.00
2018-09-21T07:06:07.425Z,1028.00
2018-09-21T07:07:07.406Z,1016.00
2018-09-21T07:08:07.423Z,992.00
2018-09-21T07:09:07.438Z,984.00
2018-09-21T07:10:07.483Z,968.00
2018-09-21T07:11:07.473Z,932.00
2018-09-21T07:12:07.487Z,892.00
2018-09-21T07:13:07.703Z,832.00
2018-09-21T07:14:07.524Z,776.00
2018-09-21T07:15:07.546Z,716.00
2018-09-21T07:16:07.545Z,656.00
2018-09-21T07:17:07.563Z,608.00
2018-09-21T07:18:07.577Z,572.00
2018-09-21T07:19:07.593Z,544.00
2018-09-21T07:20:07.609Z,536.00
2018-09-21T07:21:07.623Z,544.00
2018-09-21T07:22:07.638Z,560.00
2018-09-21T07:23:07.658Z,568.00
2018-09-21T07:24:07.678Z,572.00
2018-09-21T07:25:07.684Z,596.00
2018-09-21T07:26:07.700Z,632.00
2018-09-21T07:27:07.716Z,680.00
2018-09-21T07:28:07.735Z,732.00
2018-09-21T07:29:07.778Z,776.00
2018-09-21T07:30:07.768Z,820.00
2018-09-21T07:31:07.810Z,868.00
2018-09-21T07:32:07.792Z,900.00
2018-09-21T07:33:07.808Z,932.00
2018-09-21T07:34:07.825Z,968.00
2018-09-21T07:35:07.863Z,1016.00
2018-09-21T07:36:07.857Z,1092.00
2018-09-21T07:37:07.868Z,1192.00
2018-09-21T07:38:07.888Z,1340.00
2018-09-21T07:39:07.923Z,1540.00
2018-09-21T07:40:07.944Z,1752.00
2018-09-21T07:41:08.847Z,1932.00
2018-09-21T07:42:07.954Z,2064.00
2018-09-21T07:43:08.084Z,2128.00
2018-09-21T07:44:07.978Z,2140.00
2018-09-21T07:45:07.991Z,2084.00
2018-09-21T07:46:08.008Z,1940.00
2018-09-21T07:47:08.023Z,1700.00
2018-09-21T07:48:08.038Z,1452.00
2018-09-21T07:49:08.055Z,1280.00
2018-09-21T07:50:08.069Z,1164.00
2018-09-21T07:51:08.086Z,1104.00
2018-09-21T07:52:08.123Z,1064.00
2018-09-21T07:53:08.117Z,1212.00
2018-09-21T07:54:08.136Z,1312.00
2018-09-21T07:56:08.489Z,1244.00
2018-09-21T07:57:08.178Z,1188.00
2018-09-21T07:59:08.264Z,1096.00
2018-09-21T08:00:08.225Z,1072.00
2018-09-21T08:01:08.241Z,1052.00
2018-09-21T08:02:08.282Z,1076.00
2018-09-21T08:03:08.272Z,1120.00
2018-09-21T08:04:08.607Z,1168.00
2018-09-21T08:05:08.312Z,1224.00
2018-09-21T08:06:08.323Z,1280.00
2018-09-21T08:07:08.395Z,1324.00
2018-09-21T08:08:08.346Z,1356.00
2018-09-21T08:09:08.363Z,1296.00
2018-09-21T08:10:08.378Z,1212.00
2018-09-21T08:11:08.396Z,1252.00
2018-09-21T08:12:08.415Z,1352.00
2018-09-21T08:13:08.431Z,1472.00
2018-09-21T08:14:08.444Z,1612.00
2018-09-21T08:15:08.480Z,1736.00
2018-09-21T08:16:08.474Z,1868.00
2018-09-21T08:17:08.509Z,1984.00
2018-09-21T08:18:08.501Z,2096.00
2018-09-21T08:19:08.517Z,2228.00
2018-09-21T08:20:08.557Z,2364.00
2018-09-21T08:21:08.546Z,2468.00
2018-09-21T08:22:08.563Z,2588.00
2018-09-21T08:23:08.581Z,2716.00
2018-09-21T08:24:08.595Z,2824.00
2018-09-21T08:25:08.629Z,2832.00
2018-09-21T08:26:09.879Z,2820.00
2018-09-21T08:27:08.647Z,2884.00
2018-09-21T08:28:08.660Z,2836.00
2018-09-21T08:29:08.670Z,2676.00
2018-09-21T08:30:08.690Z,2512.00
2018-09-21T08:31:08.708Z,2572.00
2018-09-21T08:32:08.722Z,2684.00
2018-09-21T08:33:08.749Z,2764.00
2018-09-21T08:34:08.753Z,2684.00
2018-09-21T08:35:08.764Z,2572.00
2018-09-21T08:36:08.781Z,2432.00
2018-09-21T08:37:08.823Z,2472.00
2018-09-21T08:38:08.812Z,2468.00
2018-09-21T08:39:08.829Z,2244.00
2018-09-21T08:40:08.866Z,2072.00
2018-09-21T08:41:08.870Z,2224.00
2018-09-21T08:42:08.874Z,2264.00
2018-09-21T08:43:08.889Z,2152.00
2018-09-21T08:44:08.909Z,1820.00
2018-09-21T08:45:08.921Z,1816.00
2018-09-21T08:46:08.935Z,1880.00
2018-09-21T08:47:08.964Z,1784.00
2018-09-21T08:48:08.968Z,1564.00
2018-09-21T08:49:08.984Z,1364.00
2018-09-21T08:50:09.005Z,1172.00
2018-09-21T08:51:09.014Z,1028.00
2018-09-21T08:52:09.037Z,936.00
2018-09-21T08:53:09.363Z,848.00
2018-09-21T08:54:09.067Z,724.00
2018-09-21T08:55:09.077Z,656.00
2018-09-21T08:56:09.093Z,716.00
2018-09-21T08:57:09.109Z,808.00
2018-09-21T08:58:09.124Z,872.00
2018-09-21T08:59:09.139Z,940.00
2018-09-21T09:00:09.154Z,936.00
2018-09-21T09:01:09.169Z,764.00
2018-09-21T09:02:09.186Z,588.00
2018-09-21T09:03:09.235Z,472.00
2018-09-21T09:04:09.217Z,352.00
2018-09-21T09:05:09.235Z,292.00
2018-09-21T09:06:09.249Z,264.00
2018-09-21T09:07:09.323Z,248.00
2018-09-21T09:08:09.281Z,260.00
2018-09-21T09:09:09.292Z,332.00
2018-09-21T09:10:09.308Z,392.00
2018-09-21T09:11:09.736Z,372.00
2018-09-21T09:12:09.345Z,292.00
2018-09-21T09:13:09.354Z,276.00
2018-09-21T09:14:09.368Z,412.00
2018-09-21T09:15:09.416Z,560.00
2018-09-21T09:16:09.400Z,448.00
2018-09-21T09:17:09.414Z,384.00
2018-09-21T09:18:09.428Z,232.00
2018-09-21T09:19:09.443Z,208.00
2018-09-21T09:20:09.457Z,316.00
2018-09-21T09:21:09.473Z,584.00
2018-09-21T09:22:09.496Z,908.00
2018-09-21T09:23:09.604Z,832.00
2018-09-21T09:24:09.518Z,936.00
2018-09-21T09:25:09.546Z,588.00
2018-09-21T09:26:09.545Z,380.00
2018-09-21T09:27:09.566Z,416.00
2018-09-21T09:28:09.600Z,528.00
2018-09-21T09:29:09.589Z,548.00
2018-09-21T09:30:09.696Z,548.00
2018-09-21T09:31:09.669Z,576.00
2018-09-21T09:32:09.633Z,640.00
2018-09-21T09:33:09.650Z,708.00
2018-09-21T09:34:09.664Z,792.00
2018-09-21T09:35:09.680Z,940.00
2018-09-21T09:36:09.705Z,1072.00
2018-09-21T09:37:09.704Z,1048.00
2018-09-21T09:38:10.071Z,992.00
2018-09-21T09:39:09.747Z,1032.00
2018-09-21T09:40:09.974Z,1196.00
2018-09-21T09:41:09.761Z,1384.00
2018-09-21T09:42:09.779Z,1536.00
2018-09-21T09:43:09.848Z,1892.00
2018-09-21T09:44:09.805Z,2284.00
2018-09-21T09:45:09.843Z,2504.00
2018-09-21T09:46:09.831Z,2484.00
2018-09-21T09:47:09.857Z,2212.00
2018-09-21T09:48:09.874Z,1940.00
2018-09-21T09:49:09.888Z,1756.00
2018-09-21T09:50:09.890Z,1532.00
2018-09-21T09:51:09.956Z,1424.00
2018-09-21T09:52:09.920Z,1396.00
2018-09-21T09:53:09.935Z,1504.00
2018-09-21T09:54:09.946Z,1516.00
2018-09-21T09:55:09.967Z,1392.00
2018-09-21T09:56:09.974Z,1260.00
2018-09-21T09:57:10.021Z,1196.00
2018-09-21T09:58:09.999Z,1216.00
2018-09-21T09:59:10.014Z,1296.00
2018-09-21T10:00:10.031Z,1408.00
2018-09-21T10:01:10.042Z,1508.00
2018-09-21T10:02:10.059Z,1576.00
2018-09-21T10:03:10.076Z,1648.00
2018-09-21T10:04:10.086Z,1704.00
2018-09-21T10:05:10.113Z,1680.00
2018-09-21T10:06:10.121Z,1516.00
2018-09-21T10:07:10.203Z,1360.00
2018-09-21T10:08:10.181Z,1260.00
2018-09-21T10:09:10.198Z,1312.00
2018-09-21T10:10:10.224Z,1428.00
2018-09-21T10:11:10.189Z,1452.00
2018-09-21T10:12:10.202Z,1384.00
2018-09-21T10:13:10.211Z,1260.00
2018-09-21T10:14:10.234Z,1188.00
2018-09-21T10:15:10.240Z,1188.00
2018-09-21T10:16:10.257Z,1444.00
2018-09-21T10:17:10.293Z,1460.00
2018-09-21T10:18:11.343Z,1552.00
2018-09-21T10:19:10.298Z,1536.00
2018-09-21T10:20:10.312Z,1588.00
2018-09-21T10:21:10.356Z,1744.00
2018-09-21T10:22:10.347Z,1864.00
2018-09-21T10:23:10.355Z,1908.00
2018-09-21T10:24:10.446Z,1908.00
2018-09-21T10:25:10.386Z,1896.00
2018-09-21T10:26:10.399Z,1892.00
2018-09-21T10:27:10.477Z,1844.00
2018-09-21T10:28:10.522Z,1788.00
2018-09-21T10:29:10.444Z,1776.00
2018-09-21T10:30:10.455Z,1836.00
2018-09-21T10:31:10.477Z,1800.00
2018-09-21T10:32:10.484Z,1704.00
2018-09-21T10:33:10.502Z,1696.00
2018-09-21T10:34:10.542Z,1572.00
2018-09-21T10:35:10.530Z,1472.00
2018-09-21T10:36:10.557Z,1452.00
2018-09-21T10:37:10.635Z,1468.00
2018-09-21T10:38:10.780Z,1584.00
2018-09-21T10:39:10.672Z,1948.00
2018-09-21T10:40:10.693Z,2364.00
2018-09-21T10:41:10.613Z,2380.00
2018-09-21T10:42:10.632Z,2256.00
2018-09-21T10:44:10.670Z,2504.00
2018-09-21T10:45:11.130Z,2632.00
2018-09-21T10:46:10.686Z,2488.00
2018-09-21T10:47:10.700Z,2192.00
2018-09-21T10:48:10.718Z,2172.00
2018-09-21T10:49:10.728Z,2604.00
2018-09-21T10:50:10.742Z,2532.00
2018-09-21T10:51:10.755Z,2372.00
2018-09-21T10:52:10.775Z,2304.00
2018-09-21T10:53:10.788Z,2176.00
2018-09-21T10:54:10.801Z,2048.00
2018-09-21T10:55:10.821Z,2028.00
2018-09-21T10:56:10.829Z,2028.00
2018-09-21T10:57:10.843Z,1960.00
2018-09-21T10:58:10.861Z,1872.00
2018-09-21T10:59:10.874Z,1720.00
2018-09-21T11:00:10.891Z,1640.00
2018-09-21T11:01:10.901Z,1640.00
2018-09-21T11:02:10.914Z,1796.00
2018-09-21T11:03:10.935Z,2100.00
2018-09-21T11:04:10.943Z,2648.00
2018-09-21T11:05:11.008Z,3264.00
2018-09-21T11:06:10.975Z,3716.00
2018-09-21T11:07:11.103Z,3952.00
2018-09-21T11:08:11.420Z,3756.00
2018-09-21T11:09:11.016Z,3068.00
2018-09-21T11:10:11.037Z,2336.00
2018-09-21T11:11:11.046Z,1920.00
2018-09-21T11:12:11.062Z,1820.00
2018-09-21T11:13:11.125Z,1960.00
2018-09-21T11:14:11.089Z,2240.00
2018-09-21T11:15:11.104Z,2600.00
2018-09-21T11:16:11.120Z,3036.00
2018-09-21T11:17:11.136Z,3568.00
2018-09-21T11:18:11.149Z,3876.00
2018-09-21T11:19:11.169Z,3744.00
2018-09-21T11:20:11.179Z,3552.00
2018-09-21T11:21:11.193Z,3700.00
2018-09-21T11:22:11.207Z,3888.00
2018-09-21T11:23:11.220Z,3732.00
2018-09-21T11:24:11.239Z,3620.00
2018-09-21T11:25:11.253Z,3704.00
2018-09-21T11:26:11.266Z,3704.00
2018-09-21T11:27:11.282Z,3420.00
2018-09-21T11:28:11.299Z,3096.00
2018-09-21T11:29:11.315Z,2916.00
2018-09-21T11:30:11.326Z,2584.00
2018-09-21T11:31:11.347Z,2468.00
2018-09-21T11:32:11.358Z,2720.00
2018-09-21T11:33:11.410Z,3036.00
2018-09-21T11:34:11.384Z,3332.00
2018-09-21T11:35:11.433Z,3788.00
2018-09-21T11:36:11.413Z,4188.00
2018-09-21T11:37:11.427Z,4280.00
2018-09-21T11:38:11.450Z,4328.00
2018-09-21T11:39:11.462Z,4312.00
2018-09-21T11:40:11.475Z,4204.00
2018-09-21T11:41:11.490Z,4164.00
2018-09-21T11:42:11.519Z,4156.00
2018-09-21T11:43:11.517Z,3860.00
2018-09-21T11:44:11.535Z,3320.00
2018-09-21T11:45:11.547Z,3028.00
2018-09-21T11:46:11.577Z,3220.00
2018-09-21T11:47:11.592Z,3252.00
2018-09-21T11:48:11.594Z,3224.00
2018-09-21T11:49:11.608Z,3760.00
2018-09-21T11:50:11.622Z,4016.00
2018-09-21T11:51:11.681Z,3888.00
2018-09-21T11:52:11.667Z,3384.00
2018-09-21T11:53:11.693Z,2508.00
2018-09-21T11:54:11.685Z,1952.00
2018-09-21T11:55:11.698Z,2060.00
2018-09-21T11:56:11.713Z,2372.00
2018-09-21T11:57:11.726Z,2148.00
2018-09-21T11:58:11.741Z,1840.00
2018-09-21T11:59:11.754Z,1832.00
2018-09-21T12:00:11.830Z,2204.00
2018-09-21T12:01:11.797Z,2008.00
2018-09-21T12:02:11.799Z,1532.00
2018-09-21T12:03:11.816Z,1284.00
2018-09-21T12:04:11.831Z,1076.00
2018-09-21T12:05:11.843Z,908.00
2018-09-21T12:06:11.868Z,780.00
2018-09-21T12:07:11.874Z,624.00
2018-09-21T12:08:11.891Z,496.00
2018-09-21T12:09:11.904Z,468.00
2018-09-21T12:10:11.919Z,576.00
2018-09-21T12:11:11.934Z,724.00
2018-09-21T12:12:11.949Z,688.00
2018-09-21T12:13:11.991Z,760.00
2018-09-21T12:14:11.978Z,960.00
2018-09-21T12:15:11.991Z,1252.00
2018-09-21T12:16:12.007Z,2132.00
2018-09-21T12:17:12.036Z,2496.00
2018-09-21T12:18:12.038Z,2564.00
2018-09-21T12:19:12.052Z,2808.00
2018-09-21T12:20:12.065Z,2704.00
2018-09-21T12:21:12.086Z,2872.00
2018-09-21T12:22:12.130Z,2912.00
2018-09-21T12:23:12.111Z,3060.00
2018-09-21T12:25:12.183Z,3168.00
2018-09-21T12:26:12.163Z,3248.00
2018-09-21T12:27:12.192Z,3128.00
2018-09-21T12:28:12.199Z,3084.00
2018-09-21T12:29:12.211Z,2996.00
2018-09-21T12:30:12.268Z,2896.00
2018-09-21T12:31:12.230Z,2992.00
2018-09-21T12:32:12.249Z,3056.00
2018-09-21T12:33:12.259Z,3100.00
2018-09-21T12:34:12.278Z,3196.00
2018-09-21T12:35:12.287Z,3212.00
2018-09-21T12:36:12.357Z,3228.00
2018-09-21T12:37:12.315Z,3152.00
2018-09-21T12:38:12.330Z,3052.00
2018-09-21T12:39:12.349Z,3004.00
2018-09-21T12:40:12.359Z,2896.00
2018-09-21T12:41:12.375Z,2904.00
2018-09-21T12:42:12.389Z,3004.00
2018-09-21T12:43:12.407Z,3044.00
2018-09-21T12:44:12.424Z,3000.00
2018-09-21T12:45:12.437Z,2940.00
2018-09-21T12:46:12.451Z,2900.00
2018-09-21T12:47:12.489Z,2892.00
2018-09-21T12:48:12.479Z,2832.00
2018-09-21T12:49:12.496Z,2832.00
2018-09-21T12:50:12.601Z,2840.00
2018-09-21T12:51:12.523Z,2828.00
2018-09-21T12:52:12.548Z,2936.00